createdAt,value
2017-04-10T00:01:01.895Z,7.39
2017-04-10T00:02:14.444Z,7.37
2017-04-10T00:03:26.690Z,7.29
2017-04-10T00:04:39.217Z,7.32
2017-04-10T00:05:51.737Z,7.29
2017-04-10T00:07:04.258Z,7.29
2017-04-10T00:08:17.096Z,7.29
2017-04-10T00:09:29.598Z,7.29
2017-04-10T00:10:41.900Z,7.31
2017-04-10T00:11:54.444Z,7.28
2017-04-10T00:13:06.983Z,7.26
2017-04-10T00:14:19.511Z,7.25
2017-04-10T00:15:32.032Z,7.26
2017-04-10T00:16:44.542Z,7.28
2017-04-10T00:17:57.063Z,7.28
2017-04-10T00:19:09.822Z,7.28
2017-04-10T00:20:22.319Z,7.28
2017-04-10T00:21:34.851Z,7.25
2017-04-10T00:22:47.401Z,7.28
2017-04-10T00:23:59.633Z,7.28
2017-04-10T00:25:11.889Z,7.21
2017-04-10T00:26:24.413Z,7.18
2017-04-10T00:27:36.923Z,7.23
2017-04-10T00:28:49.141Z,7.19
2017-04-10T00:30:01.973Z,7.21
2017-04-10T00:31:14.231Z,7.1
2017-04-10T00:32:26.796Z,7.25
2017-04-10T00:33:39.335Z,7.13
2017-04-10T00:34:51.860Z,7.1
2017-04-10T00:36:04.410Z,7.05
2017-04-10T00:37:16.609Z,7.04
2017-04-10T00:38:29.123Z,7.07
2017-04-10T00:39:41.675Z,7.05
2017-04-10T00:40:54.522Z,6.96
2017-04-10T00:42:07.085Z,6.96
2017-04-10T00:43:19.656Z,6.89
2017-04-10T00:44:32.205Z,6.97
2017-04-10T00:45:44.743Z,6.9
2017-04-10T00:46:57.248Z,6.92
2017-04-10T00:48:09.788Z,6.82
2017-04-10T00:49:21.760Z,6.89
2017-04-10T00:50:34.006Z,6.78
2017-04-10T00:51:45.923Z,6.87
2017-04-10T00:52:58.432Z,6.83
2017-04-10T00:54:10.953Z,6.78
2017-04-10T00:55:23.461Z,6.8
2017-04-10T00:56:36.006Z,6.8
2017-04-10T00:57:48.230Z,6.78
2017-04-10T00:59:00.737Z,6.83
2017-04-10T01:00:13.255Z,6.72
2017-04-10T01:01:25.501Z,6.77
2017-04-10T01:02:38.324Z,6.8
2017-04-10T01:03:50.586Z,6.77
2017-04-10T01:05:03.181Z,6.7
2017-04-10T01:06:15.708Z,6.72
2017-04-10T01:07:28.231Z,6.74
2017-04-10T01:08:40.769Z,6.77
2017-04-10T01:09:53.298Z,6.74
2017-04-10T01:11:05.825Z,6.74
2017-04-10T01:12:18.386Z,6.75
2017-04-10T01:13:31.176Z,6.65
2017-04-10T01:14:43.371Z,6.71
2017-04-10T01:15:55.920Z,6.77
2017-04-10T01:17:08.466Z,6.68
2017-04-10T01:18:21.012Z,6.7
2017-04-10T01:19:33.529Z,6.68
2017-04-10T01:20:45.761Z,6.71
2017-04-10T01:21:58.300Z,6.68
2017-04-10T01:23:10.217Z,6.68
2017-04-10T01:24:22.774Z,6.67
2017-04-10T01:25:35.295Z,6.68
2017-04-10T01:26:47.853Z,6.67
2017-04-10T01:28:00.083Z,6.62
2017-04-10T01:29:12.632Z,6.59
2017-04-10T01:30:25.433Z,6.7
2017-04-10T01:31:37.999Z,6.7
2017-04-10T01:32:50.570Z,6.67
2017-04-10T01:34:03.087Z,6.74
2017-04-10T01:35:15.629Z,6.71
2017-04-10T01:36:28.146Z,6.67
2017-04-10T01:37:40.377Z,6.67
2017-04-10T01:38:52.915Z,6.8
2017-04-10T01:40:05.414Z,6.67
2017-04-10T01:41:17.617Z,6.71
2017-04-10T01:42:29.838Z,6.75
2017-04-10T01:43:42.356Z,6.72
2017-04-10T01:44:54.854Z,6.7
2017-04-10T01:46:07.643Z,6.8
2017-04-10T01:47:19.862Z,6.8
2017-04-10T01:48:32.393Z,6.71
2017-04-10T01:49:44.930Z,6.74
2017-04-10T01:50:57.486Z,6.72
2017-04-10T01:52:10.343Z,6.77
2017-04-10T01:53:22.890Z,6.85
2017-04-10T01:54:35.414Z,6.78
2017-04-10T01:55:47.934Z,6.77
2017-04-10T01:57:00.459Z,6.75
2017-04-10T01:58:12.960Z,6.78
2017-04-10T01:59:25.508Z,6.75
2017-04-10T02:00:37.740Z,6.78
2017-04-10T02:01:50.244Z,6.82
2017-04-10T02:03:02.756Z,6.77
2017-04-10T02:04:15.310Z,6.78
2017-04-10T02:05:27.826Z,6.85
2017-04-10T02:06:39.755Z,6.8
2017-04-10T02:07:52.273Z,6.72
2017-04-10T02:09:04.771Z,6.82
2017-04-10T02:10:17.307Z,6.77
2017-04-10T02:11:29.857Z,6.8
2017-04-10T02:12:42.375Z,6.75
2017-04-10T02:13:55.196Z,6.78
2017-04-10T02:15:07.726Z,6.77
2017-04-10T02:16:19.666Z,6.78
2017-04-10T02:17:32.185Z,6.77
2017-04-10T02:18:44.691Z,6.77
2017-04-10T02:19:57.241Z,6.83
2017-04-10T02:21:09.753Z,6.74
2017-04-10T02:22:21.988Z,6.75
2017-04-10T02:23:34.216Z,6.74
2017-04-10T02:24:46.744Z,6.75
2017-04-10T02:25:59.290Z,6.85
2017-04-10T02:27:11.811Z,6.75
2017-04-10T02:28:24.046Z,6.77
2017-04-10T02:29:36.578Z,6.8
2017-04-10T02:30:48.817Z,6.68
2017-04-10T02:32:01.369Z,6.74
2017-04-10T02:33:13.905Z,6.78
2017-04-10T02:34:26.426Z,6.74
2017-04-10T02:35:38.955Z,6.77
2017-04-10T02:36:51.175Z,6.74
2017-04-10T02:38:03.399Z,6.68
2017-04-10T02:39:15.938Z,6.71
2017-04-10T02:40:28.480Z,6.67
2017-04-10T02:41:41.026Z,6.67
2017-04-10T02:42:53.557Z,6.68
2017-04-10T02:44:06.078Z,6.62
2017-04-10T02:45:18.319Z,6.59
2017-04-10T02:46:30.517Z,6.57
2017-04-10T02:47:43.014Z,6.62
2017-04-10T02:48:55.558Z,6.54
2017-04-10T02:50:08.058Z,6.62
2017-04-10T02:51:20.593Z,6.53
2017-04-10T02:52:33.099Z,6.53
2017-04-10T02:53:45.621Z,6.52
2017-04-10T02:54:58.175Z,6.52
2017-04-10T02:56:10.705Z,6.54
2017-04-10T02:57:23.233Z,6.5
2017-04-10T02:58:35.773Z,6.47
2017-04-10T02:59:48.290Z,6.47
2017-04-10T03:01:00.819Z,6.53
2017-04-10T03:02:12.717Z,6.5
2017-04-10T03:03:25.235Z,6.47
2017-04-10T03:04:37.752Z,6.5
2017-04-10T03:05:50.298Z,6.47
2017-04-10T03:07:02.544Z,6.41
2017-04-10T03:08:15.097Z,6.44
2017-04-10T03:09:27.640Z,6.43
2017-04-10T03:10:40.178Z,6.36
2017-04-10T03:11:52.416Z,6.36
2017-04-10T03:13:04.952Z,6.38
2017-04-10T03:14:17.168Z,6.43
2017-04-10T03:15:29.073Z,6.41
2017-04-10T03:16:41.615Z,6.35
2017-04-10T03:17:54.111Z,6.29
2017-04-10T03:19:06.350Z,6.32
2017-04-10T03:20:18.877Z,6.31
2017-04-10T03:21:31.395Z,6.26
2017-04-10T03:22:43.323Z,6.32
2017-04-10T03:23:56.167Z,6.29
2017-04-10T03:25:08.679Z,6.17
2017-04-10T03:26:21.211Z,6.28
2017-04-10T03:27:33.439Z,6.29
2017-04-10T03:28:45.668Z,6.29
2017-04-10T03:29:58.200Z,6.19
2017-04-10T03:31:10.440Z,6.16
2017-04-10T03:32:22.964Z,6.2
2017-04-10T03:33:34.881Z,6.25
2017-04-10T03:34:47.100Z,6.19
2017-04-10T03:35:59.631Z,6.22
2017-04-10T03:37:12.191Z,6.2
2017-04-10T03:38:24.721Z,6.17
2017-04-10T03:39:37.258Z,6.15
2017-04-10T03:40:49.813Z,6.28
2017-04-10T03:42:02.329Z,6.19
2017-04-10T03:43:14.271Z,6.16
2017-04-10T03:44:26.819Z,6.22
2017-04-10T03:45:39.317Z,6.17
2017-04-10T03:46:51.829Z,6.13
2017-04-10T03:48:04.360Z,6.15
2017-04-10T03:49:16.572Z,6.13
2017-04-10T03:50:29.103Z,6.22
2017-04-10T03:51:41.321Z,6.15
2017-04-10T03:52:53.839Z,6.17
2017-04-10T03:54:06.356Z,6.2
2017-04-10T03:55:18.884Z,6.16
2017-04-10T03:56:31.098Z,6.19
2017-04-10T03:57:43.607Z,6.19
2017-04-10T03:58:56.164Z,6.19
2017-04-10T04:00:08.721Z,6.19
2017-04-10T04:01:21.260Z,6.19
2017-04-10T04:02:33.780Z,6.22
2017-04-10T04:03:46.005Z,6.19
2017-04-10T04:04:58.523Z,6.2
2017-04-10T04:06:11.051Z,6.19
2017-04-10T04:07:23.872Z,6.19
2017-04-10T04:08:36.443Z,6.17
2017-04-10T04:09:48.963Z,6.13
2017-04-10T04:11:01.509Z,6.19
2017-04-10T04:12:13.711Z,6.15
2017-04-10T04:13:26.247Z,6.26
2017-04-10T04:14:38.797Z,6.26
2017-04-10T04:15:51.310Z,6.26
2017-04-10T04:17:03.804Z,6.2
2017-04-10T04:18:16.332Z,6.28
2017-04-10T04:19:28.855Z,6.31
2017-04-10T04:20:41.082Z,6.32
2017-04-10T04:21:53.645Z,6.31
2017-04-10T04:23:06.168Z,6.34
2017-04-10T04:24:18.736Z,6.31
2017-04-10T04:25:31.257Z,6.39
2017-04-10T04:26:43.795Z,6.32
2017-04-10T04:27:56.327Z,6.39
2017-04-10T04:29:08.848Z,6.39
2017-04-10T04:30:21.346Z,6.43
2017-04-10T04:31:33.581Z,6.49
2017-04-10T04:32:46.160Z,6.5
2017-04-10T04:33:58.406Z,6.5
2017-04-10T04:35:10.946Z,6.47
2017-04-10T04:36:23.473Z,6.47
2017-04-10T04:37:36.013Z,6.46
2017-04-10T04:38:48.230Z,6.49
2017-04-10T04:40:01.036Z,6.47
2017-04-10T04:41:13.571Z,6.49
2017-04-10T04:42:26.075Z,6.52
2017-04-10T04:43:38.617Z,6.52
2017-04-10T04:44:51.167Z,6.57
2017-04-10T04:46:03.708Z,6.62
2017-04-10T04:47:16.226Z,6.59
2017-04-10T04:48:28.730Z,6.67
2017-04-10T04:49:41.246Z,6.68
2017-04-10T04:50:54.021Z,6.68
2017-04-10T04:52:06.571Z,6.71
2017-04-10T04:53:18.805Z,6.82
2017-04-10T04:54:31.333Z,6.77
2017-04-10T04:55:43.536Z,6.82
2017-04-10T04:56:56.092Z,6.82
2017-04-10T04:58:08.626Z,6.85
2017-04-10T04:59:21.138Z,6.86
2017-04-10T05:00:33.681Z,6.92
2017-04-10T05:01:46.437Z,6.86
2017-04-10T05:02:59.006Z,6.92
2017-04-10T05:04:11.568Z,6.96
2017-04-10T05:05:23.775Z,6.92
2017-04-10T05:06:36.309Z,6.93
2017-04-10T05:07:48.824Z,7.07
2017-04-10T05:09:01.331Z,7.1
2017-04-10T05:10:13.835Z,7.14
2017-04-10T05:11:26.381Z,7.1
2017-04-10T05:12:39.202Z,7.22
2017-04-10T05:13:51.748Z,7.08
2017-04-10T05:15:04.291Z,7.21
2017-04-10T05:16:16.831Z,7.11
2017-04-10T05:17:29.352Z,7.21
2017-04-10T05:18:41.852Z,7.19
2017-04-10T05:19:54.074Z,7.25
2017-04-10T05:21:06.587Z,7.25
2017-04-10T05:22:19.140Z,7.26
2017-04-10T05:23:31.913Z,7.26
2017-04-10T05:24:44.457Z,7.33
2017-04-10T05:25:56.970Z,7.36
2017-04-10T05:27:09.223Z,7.44
2017-04-10T05:28:21.724Z,7.44
2017-04-10T05:29:33.974Z,7.44
2017-04-10T05:30:46.492Z,7.51
2017-04-10T05:31:58.727Z,7.5
2017-04-10T05:33:10.970Z,7.51
2017-04-10T05:34:22.894Z,7.7
2017-04-10T05:35:35.428Z,7.62
2017-04-10T05:36:47.987Z,7.69
2017-04-10T05:38:00.512Z,7.59
2017-04-10T05:39:13.041Z,7.77
2017-04-10T05:40:25.574Z,7.77
2017-04-10T05:41:38.129Z,7.78
2017-04-10T05:42:50.645Z,7.88
2017-04-10T05:44:03.162Z,7.88
2017-04-10T05:45:15.387Z,7.96
2017-04-10T05:46:27.892Z,7.96
2017-04-10T05:47:40.457Z,8.01
2017-04-10T05:48:52.978Z,8.08
2017-04-10T05:50:05.538Z,8.09
2017-04-10T05:51:17.788Z,8.23
2017-04-10T05:52:30.316Z,8.21
2017-04-10T05:53:42.852Z,8.26
2017-04-10T05:54:55.379Z,8.24
2017-04-10T05:56:07.904Z,8.32
2017-04-10T05:57:20.138Z,8.39
2017-04-10T05:58:32.359Z,8.46
2017-04-10T05:59:44.566Z,8.44
2017-04-10T06:00:57.125Z,8.52
2017-04-10T06:02:09.675Z,8.56
2017-04-10T06:03:22.181Z,8.72
2017-04-10T06:04:34.691Z,8.78
2017-04-10T06:05:47.212Z,8.87
2017-04-10T06:06:59.731Z,8.74
2017-04-10T06:08:11.983Z,8.82
2017-04-10T06:09:24.214Z,9.02
2017-04-10T06:10:36.454Z,9.05
2017-04-10T06:11:49.000Z,9.19
2017-04-10T06:13:01.563Z,9.18
2017-04-10T06:14:14.107Z,9.26
2017-04-10T06:15:26.638Z,9.33
2017-04-10T06:16:39.180Z,9.3
2017-04-10T06:17:51.652Z,9.44
2017-04-10T06:19:04.193Z,9.47
2017-04-10T06:20:16.739Z,9.56
2017-04-10T06:21:29.266Z,9.72
2017-04-10T06:22:41.189Z,9.69
2017-04-10T06:23:53.752Z,9.77
2017-04-10T06:25:05.977Z,9.81
2017-04-10T06:26:18.498Z,9.84
2017-04-10T06:27:31.044Z,9.95
2017-04-10T06:28:43.564Z,9.99
2017-04-10T06:29:55.786Z,10
2017-04-10T06:31:08.001Z,10.13
2017-04-10T06:32:20.531Z,10.27
2017-04-10T06:33:33.073Z,10.28
2017-04-10T06:34:45.597Z,10.41
2017-04-10T06:35:58.107Z,10.57
2017-04-10T06:37:10.353Z,10.8
2017-04-10T06:38:22.899Z,10.79
2017-04-10T06:39:35.430Z,11.1
2017-04-10T06:40:47.379Z,11.16
2017-04-10T06:41:59.919Z,11.35
2017-04-10T06:43:12.133Z,11.65
2017-04-10T06:44:24.682Z,11.67
2017-04-10T06:45:37.211Z,11.89
2017-04-10T06:46:49.796Z,12.23
2017-04-10T06:48:02.341Z,12.53
2017-04-10T06:49:14.888Z,12.76
2017-04-10T06:50:27.421Z,12.94
2017-04-10T06:51:39.954Z,13.28
2017-04-10T06:52:52.507Z,13.43
2017-04-10T06:54:05.038Z,13.73
2017-04-10T06:55:17.270Z,14
2017-04-10T06:56:29.796Z,14.34
2017-04-10T06:57:42.316Z,14.56
2017-04-10T06:58:54.858Z,14.79
2017-04-10T07:00:07.378Z,15.04
2017-04-10T07:01:19.925Z,15.33
2017-04-10T07:02:32.467Z,15.44
2017-04-10T07:03:44.971Z,15.66
2017-04-10T07:04:57.209Z,15.91
2017-04-10T07:06:09.766Z,15.96
2017-04-10T07:07:22.330Z,15.98
2017-04-10T07:08:34.579Z,16.12
2017-04-10T07:09:47.121Z,16.24
2017-04-10T07:10:59.639Z,16.18
2017-04-10T07:12:12.184Z,16.09
2017-04-10T07:13:24.735Z,16.18
2017-04-10T07:14:36.960Z,16.13
2017-04-10T07:15:49.477Z,16.1
2017-04-10T07:17:02.001Z,16.02
2017-04-10T07:18:14.227Z,15.98
2017-04-10T07:19:26.463Z,16.06
2017-04-10T07:20:39.006Z,16.02
2017-04-10T07:21:51.540Z,16.03
2017-04-10T07:23:04.327Z,16.08
2017-04-10T07:24:16.247Z,16.06
2017-04-10T07:25:28.789Z,16.13
2017-04-10T07:26:41.323Z,16.25
2017-04-10T07:27:53.889Z,16.28
2017-04-10T07:29:06.452Z,16.37
2017-04-10T07:30:19.012Z,16.36
2017-04-10T07:31:31.570Z,16.54
2017-04-10T07:32:44.118Z,16.57
2017-04-10T07:33:56.648Z,16.76
2017-04-10T07:35:09.193Z,16.95
2017-04-10T07:36:21.713Z,17.1
2017-04-10T07:37:34.260Z,17.3
2017-04-10T07:38:46.778Z,17.47
2017-04-10T07:39:59.027Z,17.63
2017-04-10T07:41:11.299Z,17.86
2017-04-10T07:42:23.869Z,18.05
2017-04-10T07:43:36.436Z,18.39
2017-04-10T07:44:48.953Z,18.46
2017-04-10T07:46:01.524Z,18.78
2017-04-10T07:47:14.049Z,19.08
2017-04-10T07:48:26.269Z,19.2
2017-04-10T07:49:38.765Z,19.39
2017-04-10T07:50:51.290Z,19.56
2017-04-10T07:52:03.552Z,19.78
2017-04-10T07:53:15.799Z,19.81
2017-04-10T07:54:27.417Z,20.04
2017-04-10T07:55:40.012Z,20.15
2017-04-10T07:56:52.559Z,20.22
2017-04-10T07:58:05.112Z,20.24
2017-04-10T07:59:17.649Z,20.21
2017-04-10T08:00:30.204Z,20.19
2017-04-10T08:01:42.471Z,20.02
2017-04-10T08:02:55.046Z,19.9
2017-04-10T08:04:07.592Z,19.82
2017-04-10T08:05:20.141Z,19.67
2017-04-10T08:06:32.679Z,19.6
2017-04-10T08:07:45.247Z,19.55
2017-04-10T08:08:57.793Z,19.38
2017-04-10T08:10:09.714Z,19.27
2017-04-10T08:11:22.221Z,19.23
2017-04-10T08:12:34.459Z,19.16
2017-04-10T08:13:47.011Z,19.08
2017-04-10T08:14:59.260Z,19
2017-04-10T08:16:11.481Z,18.89
2017-04-10T08:17:24.051Z,18.82
2017-04-10T08:18:36.610Z,18.82
2017-04-10T08:19:48.833Z,18.82
2017-04-10T08:21:00.755Z,18.66
2017-04-10T08:22:13.281Z,18.66
2017-04-10T08:23:25.819Z,18.61
2017-04-10T08:24:38.340Z,18.63
2017-04-10T08:25:50.870Z,18.6
2017-04-10T08:27:03.106Z,18.57
2017-04-10T08:28:15.663Z,18.51
2017-04-10T08:29:28.198Z,18.53
2017-04-10T08:30:40.752Z,18.48
2017-04-10T08:31:52.665Z,18.53
2017-04-10T08:33:05.262Z,18.48
2017-04-10T08:34:17.511Z,18.51
2017-04-10T08:35:30.013Z,18.58
2017-04-10T08:36:42.559Z,18.6
2017-04-10T08:37:55.102Z,18.53
2017-04-10T08:39:07.551Z,18.55
2017-04-10T08:40:19.819Z,18.6
2017-04-10T08:41:32.344Z,18.61
2017-04-10T08:42:44.861Z,18.64
2017-04-10T08:43:57.099Z,18.66
2017-04-10T08:45:09.652Z,18.7
2017-04-10T08:46:22.191Z,18.76
2017-04-10T08:47:34.761Z,18.81
2017-04-10T08:48:47.286Z,18.88
2017-04-10T08:49:59.236Z,18.82
2017-04-10T08:51:11.762Z,18.88
2017-04-10T08:52:24.006Z,18.89
2017-04-10T08:53:36.230Z,18.96
2017-04-10T08:54:48.437Z,18.96
2017-04-10T08:56:00.943Z,18.98
2017-04-10T08:57:13.504Z,19.01
2017-04-10T08:58:26.031Z,19.01
2017-04-10T08:59:37.946Z,19.09
2017-04-10T09:00:50.517Z,19.08
2017-04-10T09:02:02.770Z,19.09
2017-04-10T09:03:15.316Z,19.15
2017-04-10T09:04:27.855Z,19.12
2017-04-10T09:05:40.104Z,19.19
2017-04-10T09:06:52.679Z,19.23
2017-04-10T09:08:05.178Z,19.32
2017-04-10T09:09:17.702Z,19.27
2017-04-10T09:10:30.246Z,19.39
2017-04-10T09:11:42.490Z,19.35
2017-04-10T09:12:55.036Z,19.38
2017-04-10T09:14:07.275Z,19.38
2017-04-10T09:15:19.520Z,19.38
2017-04-10T09:16:32.096Z,19.47
2017-04-10T09:17:44.635Z,19.38
2017-04-10T09:18:56.558Z,19.55
2017-04-10T09:20:08.512Z,19.56
2017-04-10T09:21:21.059Z,19.55
2017-04-10T09:22:33.327Z,19.63
2017-04-10T09:23:45.892Z,19.62
2017-04-10T09:24:58.442Z,19.75
2017-04-10T09:26:10.965Z,19.7
2017-04-10T09:27:23.506Z,19.77
2017-04-10T09:28:35.431Z,19.78
2017-04-10T09:29:47.651Z,19.78
2017-04-10T09:31:00.197Z,19.89
2017-04-10T09:32:12.139Z,19.97
2017-04-10T09:33:24.388Z,20
2017-04-10T09:34:36.328Z,20.03
2017-04-10T09:35:48.874Z,20.04
2017-04-10T09:37:01.431Z,20.04
2017-04-10T09:38:13.668Z,20.11
2017-04-10T09:39:25.637Z,20.15
2017-04-10T09:40:37.846Z,20.17
2017-04-10T09:41:50.344Z,20.22
2017-04-10T09:43:01.987Z,20.32
2017-04-10T09:44:14.254Z,20.39
2017-04-10T09:45:26.515Z,20.37
2017-04-10T09:46:39.028Z,20.46
2017-04-10T09:47:50.965Z,20.55
2017-04-10T09:49:02.911Z,20.5
2017-04-10T09:50:15.160Z,20.56
2017-04-10T09:51:27.379Z,20.67
2017-04-10T09:52:39.915Z,20.67
2017-04-10T09:53:51.869Z,20.7
2017-04-10T09:55:04.392Z,20.78
2017-04-10T09:56:16.039Z,20.86
2017-04-10T09:57:28.273Z,20.92
2017-04-10T09:58:40.231Z,20.93
2017-04-10T09:59:51.895Z,21.04
2017-04-10T10:01:04.391Z,21.01
2017-04-10T10:02:16.337Z,21.07
2017-04-10T10:03:28.610Z,21.11
2017-04-10T10:04:41.126Z,21.11
2017-04-10T10:05:53.358Z,21.15
2017-04-10T10:07:05.017Z,21.2
2017-04-10T10:08:17.267Z,21.26
2017-04-10T10:09:29.769Z,21.25
2017-04-10T10:10:42.006Z,21.32
2017-04-10T10:11:53.961Z,21.32
2017-04-10T10:13:06.200Z,21.35
2017-04-10T10:14:18.727Z,21.38
2017-04-10T10:15:30.947Z,21.44
2017-04-10T10:16:42.886Z,21.47
2017-04-10T10:17:54.841Z,21.51
2017-04-10T10:19:06.477Z,21.6
2017-04-10T10:20:18.712Z,21.7
2017-04-10T10:21:31.275Z,21.88
2017-04-10T10:22:43.526Z,21.92
2017-04-10T10:23:56.089Z,21.94
2017-04-10T10:25:08.315Z,22.07
2017-04-10T10:26:20.913Z,22.06
2017-04-10T10:27:32.865Z,22.14
2017-04-10T10:28:44.826Z,22.08
2017-04-10T10:29:57.375Z,22.23
2017-04-10T10:31:09.909Z,22.23
2017-04-10T10:32:21.843Z,22.23
2017-04-10T10:33:34.378Z,22.33
2017-04-10T10:34:46.931Z,22.41
2017-04-10T10:35:58.880Z,22.55
2017-04-10T10:37:10.526Z,22.65
2017-04-10T10:38:22.448Z,22.7
2017-04-10T10:39:34.989Z,22.74
2017-04-10T10:40:46.910Z,22.95
2017-04-10T10:41:58.853Z,22.98
2017-04-10T10:43:11.130Z,23.16
2017-04-10T10:44:23.691Z,23.2
2017-04-10T10:45:35.940Z,23.39
2017-04-10T10:46:48.212Z,23.4
2017-04-10T10:48:00.462Z,23.54
2017-04-10T10:49:12.098Z,23.55
2017-04-10T10:50:24.356Z,23.66
2017-04-10T10:51:35.992Z,23.74
2017-04-10T10:52:47.924Z,23.77
2017-04-10T10:53:59.863Z,23.85
2017-04-10T10:55:12.404Z,24.04
2017-04-10T10:56:24.661Z,24.07
2017-04-10T10:57:36.881Z,24.13
2017-04-10T10:58:49.120Z,24.24
2017-04-10T11:00:01.692Z,24.22
2017-04-10T11:01:13.037Z,24.29
2017-04-10T11:02:25.579Z,24.31
2017-04-10T11:03:38.154Z,24.24
2017-04-10T11:04:49.825Z,24.24
2017-04-10T11:06:02.378Z,24.21
2017-04-10T11:07:14.921Z,24.24
2017-04-10T11:08:26.867Z,24.29
2017-04-10T11:09:39.079Z,24.37
2017-04-10T11:10:51.309Z,24.44
2017-04-10T11:12:02.639Z,24.55
2017-04-10T11:13:15.227Z,24.51
2017-04-10T11:14:27.773Z,24.62
2017-04-10T11:15:40.334Z,24.66
2017-04-10T11:16:52.588Z,24.75
2017-04-10T11:18:04.841Z,24.69
2017-04-10T11:19:17.376Z,24.79
2017-04-10T11:20:29.009Z,24.61
2017-04-10T11:21:40.957Z,24.66
2017-04-10T11:22:52.014Z,24.74
2017-04-10T11:24:04.289Z,24.61
2017-04-10T11:25:16.557Z,24.46
2017-04-10T11:26:28.834Z,24.22
2017-04-10T11:27:41.126Z,24.03
2017-04-10T11:28:53.693Z,23.86
2017-04-10T11:30:05.948Z,23.82
2017-04-10T11:31:17.571Z,23.63
2017-04-10T11:32:29.827Z,23.39
2017-04-10T11:33:41.459Z,23.18
2017-04-10T11:34:54.034Z,23.17
2017-04-10T11:36:06.334Z,22.92
2017-04-10T11:37:18.289Z,22.83
2017-04-10T11:38:30.535Z,22.78
2017-04-10T11:39:42.778Z,22.77
2017-04-10T11:40:55.053Z,22.77
2017-04-10T11:42:07.324Z,22.83
2017-04-10T11:43:19.896Z,22.95
2017-04-10T11:44:32.145Z,22.96
2017-04-10T11:45:44.707Z,22.98
2017-04-10T11:46:56.958Z,22.98
2017-04-10T11:48:09.482Z,23.02
2017-04-10T11:49:21.724Z,23.06
2017-04-10T11:50:34.299Z,23.11
2017-04-10T11:51:46.241Z,22.99
2017-04-10T11:52:58.762Z,22.92
2017-04-10T11:54:10.413Z,22.93
2017-04-10T11:55:22.951Z,22.81
2017-04-10T11:56:35.507Z,22.77
2017-04-10T11:57:47.748Z,22.78
2017-04-10T11:59:00.296Z,22.78
2017-04-10T12:00:12.858Z,22.88
2017-04-10T12:01:25.167Z,22.86
2017-04-10T12:02:37.433Z,22.88
2017-04-10T12:03:49.971Z,22.81
2017-04-10T12:05:02.226Z,22.68
2017-04-10T12:06:14.752Z,22.61
2017-04-10T12:07:27.320Z,22.62
2017-04-10T12:08:39.863Z,22.55
2017-04-10T12:09:52.145Z,22.37
2017-04-10T12:11:04.705Z,22.25
2017-04-10T12:12:16.951Z,22.15
2017-04-10T12:13:29.474Z,22.06
2017-04-10T12:14:41.993Z,21.89
2017-04-10T12:15:54.239Z,21.69
2017-04-10T12:17:06.455Z,21.53
2017-04-10T12:18:18.997Z,21.44
2017-04-10T12:19:31.243Z,21.28
2017-04-10T12:20:43.797Z,21.22
2017-04-10T12:21:55.713Z,21.13
2017-04-10T12:23:08.255Z,21.2
2017-04-10T12:24:20.485Z,20.98
2017-04-10T12:25:32.751Z,20.77
2017-04-10T12:26:44.977Z,20.74
2017-04-10T12:27:57.525Z,20.67
2017-04-10T12:29:10.063Z,20.5
2017-04-10T12:30:22.317Z,20.34
2017-04-10T12:31:34.560Z,20.3
2017-04-10T12:32:47.102Z,20.17
2017-04-10T12:33:59.631Z,20.08
2017-04-10T12:35:11.593Z,20.04
2017-04-10T12:36:23.826Z,20.07
2017-04-10T12:37:36.669Z,19.99
2017-04-10T12:38:49.254Z,19.89
2017-04-10T12:40:01.803Z,19.78
2017-04-10T12:41:13.727Z,19.74
2017-04-10T12:42:26.266Z,19.6
2017-04-10T12:43:38.811Z,19.47
2017-04-10T12:44:51.015Z,19.41
2017-04-10T12:46:03.256Z,19.29
2017-04-10T12:47:15.808Z,19.24
2017-04-10T12:48:28.053Z,19.23
2017-04-10T12:49:40.582Z,19.16
2017-04-10T12:50:53.145Z,19.09
2017-04-10T12:52:05.384Z,19.07
2017-04-10T12:53:17.908Z,19
2017-04-10T12:54:30.425Z,19
2017-04-10T12:55:42.681Z,18.92
2017-04-10T12:56:55.228Z,18.98
2017-04-10T12:58:07.770Z,18.98
2017-04-10T12:59:20.294Z,18.98
2017-04-10T13:00:32.807Z,18.91
2017-04-10T13:01:45.358Z,18.97
2017-04-10T13:02:57.903Z,19.01
2017-04-10T13:04:10.129Z,19.07
2017-04-10T13:05:22.404Z,19.01
2017-04-10T13:06:34.634Z,18.92
2017-04-10T13:07:46.880Z,18.94
2017-04-10T13:08:59.434Z,18.91
2017-04-10T13:10:11.697Z,18.88
2017-04-10T13:11:23.925Z,18.78
2017-04-10T13:12:36.472Z,18.85
2017-04-10T13:13:48.710Z,18.82
2017-04-10T13:15:01.280Z,18.6
2017-04-10T13:16:13.530Z,18.67
2017-04-10T13:17:25.785Z,18.52
2017-04-10T13:18:38.018Z,18.6
2017-04-10T13:19:50.592Z,18.49
2017-04-10T13:21:02.818Z,18.46
2017-04-10T13:22:15.343Z,18.51
2017-04-10T13:23:27.861Z,18.51
2017-04-10T13:24:40.422Z,18.49
2017-04-10T13:25:52.677Z,18.51
2017-04-10T13:27:05.200Z,18.48
2017-04-10T13:28:17.787Z,18.51
2017-04-10T13:29:30.021Z,18.43
2017-04-10T13:30:42.013Z,18.43
2017-04-10T13:31:54.281Z,18.36
2017-04-10T13:33:06.523Z,18.41
2017-04-10T13:34:18.489Z,18.36
2017-04-10T13:35:30.139Z,18.36
2017-04-10T13:36:42.393Z,18.39
2017-04-10T13:37:54.614Z,18.31
2017-04-10T13:39:07.158Z,18.16
2017-04-10T13:40:19.376Z,18.12
2017-04-10T13:41:31.614Z,18.03
2017-04-10T13:42:43.537Z,17.9
2017-04-10T13:43:56.144Z,17.79
2017-04-10T13:45:08.706Z,17.68
2017-04-10T13:46:21.213Z,17.53
2017-04-10T13:47:32.872Z,17.41
2017-04-10T13:48:45.120Z,17.38
2017-04-10T13:49:57.670Z,17.31
2017-04-10T13:51:09.882Z,17.22
2017-04-10T13:52:21.815Z,17.13
2017-04-10T13:53:34.056Z,17.01
2017-04-10T13:54:46.270Z,17.01
2017-04-10T13:55:58.220Z,17.01
2017-04-10T13:57:10.439Z,16.95
2017-04-10T13:58:22.645Z,16.92
2017-04-10T13:59:35.192Z,16.91
2017-04-10T14:00:47.150Z,16.84
2017-04-10T14:01:59.400Z,16.87
2017-04-10T14:03:11.629Z,16.8
2017-04-10T14:04:23.871Z,16.74
2017-04-10T14:05:36.093Z,16.79
2017-04-10T14:06:48.029Z,16.79
2017-04-10T14:07:59.979Z,16.77
2017-04-10T14:09:11.922Z,16.74
2017-04-10T14:10:23.875Z,16.74
2017-04-10T14:11:36.093Z,16.62
2017-04-10T14:12:48.642Z,16.64
2017-04-10T14:14:01.163Z,16.65
2017-04-10T14:15:13.389Z,16.44
2017-04-10T14:16:25.948Z,16.51
2017-04-10T14:17:38.501Z,16.55
2017-04-10T14:18:51.028Z,16.49
2017-04-10T14:20:03.596Z,16.49
2017-04-10T14:21:16.218Z,16.43
2017-04-10T14:22:28.766Z,16.44
2017-04-10T14:23:41.322Z,16.47
2017-04-10T14:24:53.256Z,16.32
2017-04-10T14:26:05.868Z,16.25
2017-04-10T14:27:17.814Z,16.26
2017-04-10T14:28:30.036Z,16.22
2017-04-10T14:29:42.586Z,16.16
2017-04-10T14:30:54.806Z,16.17
2017-04-10T14:32:07.028Z,16.13
2017-04-10T14:33:19.265Z,16.12
2017-04-10T14:34:31.219Z,16.03
2017-04-10T14:35:43.758Z,16.05
2017-04-10T14:36:55.989Z,16.02
2017-04-10T14:38:08.212Z,15.92
2017-04-10T14:39:20.773Z,15.88
2017-04-10T14:40:33.316Z,15.8
2017-04-10T14:41:45.840Z,15.78
2017-04-10T14:42:58.370Z,15.78
2017-04-10T14:44:10.631Z,15.8
2017-04-10T14:45:22.589Z,15.66
2017-04-10T14:46:35.110Z,15.7
2017-04-10T14:47:47.646Z,15.6
2017-04-10T14:49:00.187Z,15.52
2017-04-10T14:50:12.716Z,15.43
2017-04-10T14:51:24.958Z,15.39
2017-04-10T14:52:37.478Z,15.36
2017-04-10T14:53:50.046Z,15.29
2017-04-10T14:55:02.645Z,15.26
2017-04-10T14:56:15.199Z,15.14
2017-04-10T14:57:27.745Z,15.11
2017-04-10T14:58:40.269Z,15.07
2017-04-10T14:59:52.827Z,15.1
2017-04-10T15:01:05.383Z,15.02
2017-04-10T15:02:17.600Z,14.99
2017-04-10T15:03:30.139Z,14.89
2017-04-10T15:04:41.770Z,14.96
2017-04-10T15:05:54.288Z,14.96
2017-04-10T15:07:06.811Z,15.04
2017-04-10T15:08:19.373Z,15
2017-04-10T15:09:31.925Z,15.07
2017-04-10T15:10:44.467Z,15.11
2017-04-10T15:11:57.039Z,15.11
2017-04-10T15:13:09.592Z,15.11
2017-04-10T15:14:21.835Z,15.1
2017-04-10T15:15:34.355Z,15.05
2017-04-10T15:16:46.893Z,15.07
2017-04-10T15:17:59.452Z,15.1
2017-04-10T15:19:11.992Z,14.97
2017-04-10T15:20:24.510Z,15.02
2017-04-10T15:21:37.056Z,15.02
2017-04-10T15:22:49.623Z,14.96
2017-04-10T15:24:02.151Z,14.97
2017-04-10T15:25:14.693Z,15
2017-04-10T15:26:26.964Z,14.92
2017-04-10T15:27:39.185Z,14.87
2017-04-10T15:28:51.756Z,14.93
2017-04-10T15:30:04.284Z,14.86
2017-04-10T15:31:16.532Z,14.87
2017-04-10T15:32:29.073Z,14.85
2017-04-10T15:33:41.595Z,14.9
2017-04-10T15:34:53.819Z,14.93
2017-04-10T15:36:06.387Z,14.93
2017-04-10T15:37:18.624Z,14.87
2017-04-10T15:38:31.149Z,14.93
2017-04-10T15:39:43.679Z,14.97
2017-04-10T15:40:56.199Z,14.96
2017-04-10T15:42:08.421Z,14.97
2017-04-10T15:43:20.957Z,14.93
2017-04-10T15:44:33.483Z,14.92
2017-04-10T15:45:46.024Z,14.85
2017-04-10T15:46:58.569Z,14.74
2017-04-10T15:48:10.775Z,14.63
2017-04-10T15:49:22.995Z,14.61